This is the latest recevied weather packets stored in our database for station/object Riedlingn. If no packets are shown the sender has not sent any weather packets the latest 1 day(s).
| Time | Temp. | Humidity | Pressure | Rain* | Wind** | Luminosity | Snow |
|---|---|---|---|---|---|---|---|
| 1836273905 | 11.67° C | 96% | 1021.6 hPa | 0 mm | 0 m/s | - | - |
| 1778034731 | 8.89° C | 94% | 1013.1 hPa | 0 mm | 0 m/s | - | - |
| 1778032932 | 9.44° C | 93% | 1013.1 hPa | 0 mm | 0.89 m/s, 236° | - | - |
| 1778031131 | 9.44° C | 94% | 1013.3 hPa | 0 mm | 1.34 m/s, 271° | - | - |
| 1778029332 | 9.44° C | 93% | 1013.7 hPa | 0 mm | 0.89 m/s, 255° | - | - |
| 1778027529 | 9.44° C | 93% | 1013.5 hPa | 0 mm | 0 m/s | - | - |
| 1778025729 | 10° C | 92% | 1013.8 hPa | 0 mm | 0.89 m/s, 229° | - | - |
| 1778023929 | 10° C | 92% | 1013.9 hPa | 0 mm | 0.89 m/s, 237° | - | - |
| 1778022129 | 10° C | 92% | 1013.9 hPa | 0 mm | 1.79 m/s, 254° | - | - |
| 1778020330 | 10° C | 90% | 1014.1 hPa | 0 mm | 0.45 m/s, 232° | - | - |
| 1778018529 | 10.56° C | 89% | 1014 hPa | 0 mm | 0.45 m/s, 232° | - | - |
| 1778016731 | 11.11° C | 89% | 1014.2 hPa | 0.76 mm | 1.34 m/s, 245° | - | - |
| 1778014935 | 11.67° C | 88% | 1014.2 hPa | 0.76 mm | 3.58 m/s, 223° | - | - |
| 1778013129 | 12.22° C | 87% | 1013.9 hPa | 0.76 mm | 2.68 m/s, 246° | - | - |
| 1778011330 | 12.22° C | 87% | 1014 hPa | 0.76 mm | 4.47 m/s, 254° | - | - |
| 1778009529 | 13.33° C | 86% | 1013.7 hPa | 0.76 mm | 1.79 m/s, 190° | - | - |
| 1778007735 | 13.89° C | 83% | 1012.9 hPa | 0.76 mm | 1.79 m/s, 240° | - | - |
| 1778005932 | 15° C | 76% | 1012.6 hPa | 0.51 mm | 3.13 m/s, 236° | - | - |
| 1778004131 | 15.56° C | 74% | 1012.3 hPa | 0.51 mm | 5.36 m/s, 265° | - | - |
| 1778002330 | 16.11° C | 70% | 1012.2 hPa | 0.51 mm | 4.47 m/s, 263° | - | - |
| 1778000530 | 16.67° C | 66% | 1011.9 hPa | 0.51 mm | 1.79 m/s, 217° | - | - |
| 1777998731 | 16.67° C | 65% | 1011.9 hPa | 0.51 mm | 1.79 m/s, 252° | - | - |
| 1777995130 | 16.67° C | 70% | 1011.8 hPa | 0.51 mm | 1.34 m/s, 180° | - | - |
| 1777993336 | 16.11° C | 72% | 1011.9 hPa | 0.51 mm | 1.34 m/s, 232° | - | - |
| 1777991532 | 15.56° C | 74% | 1011.9 hPa | 0.51 mm | 1.34 m/s, 12° | - | - |
* Rain since midnight (hover to see other rain measurements)
** Current wind speed in m/s (hover to see current wind gust speed)